Time;durP1;ratioP1;P1;durP2;ratioP2;P2;SDS_P1;SDS_P2;PMS_P1;PMS_P2;Temp;Humidity;BMP_temperature;BMP_pressure;BME280_temperature;BME280_humidity;BME280_pressure;Samples;Min_cycle;Max_cycle;Signal;HPM_P1;HPM_P2
2022/12/07 00:11:14;;;;;;;2.38;0.10;;;4.30;99.90;;;;;;6407719;22;20021;-93
2022/12/07 00:14:18;;;;;;;1.38;0.17;;;4.30;99.90;;;;;;6357344;22;20089;-92
2022/12/07 00:16:45;;;;;;;1.08;0.10;;;4.20;99.90;;;;;;6380678;22;20014;-94
2022/12/07 00:19:13;;;;;;;1.45;0.35;;;4.20;99.90;;;;;;6358579;22;20017;-93
2022/12/07 00:21:50;;;;;;;0.47;0.13;;;4.20;99.90;;;;;;6356464;22;20025;-89
2022/12/07 00:24:16;;;;;;;3.53;0.33;;;4.10;99.90;;;;;;6361015;22;20014;-92
2022/12/07 00:26:42;;;;;;;1.60;0.20;;;4.10;99.90;;;;;;6356683;22;20334;-90
2022/12/07 02:30:09;;;;;;;0.68;0.10;;;4.00;99.90;;;;;;6333249;22;20026;-92
2022/12/07 02:33:03;;;;;;;1.98;0.20;;;3.90;99.90;;;;;;6255604;22;20348;-93
2022/12/07 02:35:39;;;;;;;1.42;0.10;;;3.80;99.90;;;;;;6255714;22;20018;-93
2022/12/07 02:38:25;;;;;;;1.85;0.17;;;3.80;99.90;;;;;;6255779;22;20026;-93
2022/12/07 02:40:55;;;;;;;0.85;0.50;;;3.80;99.90;;;;;;6255916;22;20015;-92
2022/12/07 02:43:28;;;;;;;0.30;0.00;;;3.70;99.90;;;;;;6256169;22;20070;-93
2022/12/07 02:46:10;;;;;;;1.42;0.13;;;3.60;99.90;;;;;;6255888;22;20011;-93
2022/12/07 02:48:38;;;;;;;1.05;0.10;;;3.60;99.90;;;;;;6255822;22;20462;-93
2022/12/07 02:51:04;;;;;;;1.15;0.20;;;3.50;99.90;;;;;;6255724;22;20015;-93
2022/12/07 02:53:35;;;;;;;0.17;0.00;;;3.50;99.90;;;;;;6234863;22;20026;-96
2022/12/07 02:56:38;;;;;;;1.15;0.20;;;3.50;99.90;;;;;;6261225;22;20513;-95
2022/12/07 02:59:42;;;;;;;0.47;0.10;;;3.50;99.90;;;;;;6258695;22;20448;-96
2022/12/07 03:02:39;;;;;;;2.25;0.20;;;3.50;99.90;;;;;;6226194;22;20344;-92
2022/12/07 03:05:14;;;;;;;0.85;0.10;;;3.50;99.90;;;;;;6247653;22;20415;-95
2022/12/07 03:07:56;;;;;;;1.95;0.40;;;3.60;99.90;;;;;;6255613;22;20022;-93
2022/12/07 03:10:35;;;;;;;1.35;0.08;;;3.60;99.90;;;;;;6255671;22;20011;-93
2022/12/07 03:13:16;;;;;;;0.43;0.15;;;3.60;99.90;;;;;;6255633;22;20019;-93
2022/12/07 03:15:45;;;;;;;0.40;0.10;;;3.70;99.90;;;;;;6255560;22;20026;-92
2022/12/07 03:18:16;;;;;;;0.20;0.10;;;3.70;99.90;;;;;;6255490;22;20011;-94
2022/12/07 03:38:16;;;;;;;0.65;0.20;;;4.00;99.90;;;;;;6371033;22;20022;-96
2022/12/07 03:40:57;;;;;;;2.50;0.25;;;4.00;99.90;;;;;;6320310;22;20023;-94
2022/12/07 03:43:23;;;;;;;2.80;0.25;;;4.10;99.90;;;;;;6317534;22;20443;-94
2022/12/07 03:46:13;;;;;;;5.23;0.23;;;4.10;99.90;;;;;;6318467;22;20014;-93
2022/12/07 03:49:09;;;;;;;0.73;0.08;;;4.20;99.90;;;;;;6319642;22;20014;-93
2022/12/07 03:51:51;;;;;;;1.70;0.10;;;4.30;99.90;;;;;;6306578;22;20019;-92
2022/12/07 03:54:28;;;;;;;1.08;0.38;;;4.30;99.90;;;;;;6319517;22;20018;-93
2022/12/07 03:56:55;;;;;;;0.00;0.00;;;4.30;99.90;;;;;;6319612;22;20485;-95
2022/12/07 03:59:22;;;;;;;0.10;0.05;;;4.20;99.90;;;;;;6319230;22;20011;-93
2022/12/07 04:01:54;;;;;;;3.08;0.30;;;4.20;99.90;;;;;;6319330;22;20014;-95
2022/12/07 04:04:20;;;;;;;0.38;0.00;;;4.20;99.90;;;;;;6320363;22;20014;-93
2022/12/07 04:06:46;;;;;;;1.35;0.05;;;4.10;99.90;;;;;;6322998;22;20093;-92
2022/12/07 04:11:48;;;;;;;2.22;0.75;;;4.00;99.90;;;;;;6367260;22;20033;-93
2022/12/07 04:14:19;;;;;;;0.83;0.20;;;4.00;99.90;;;;;;6320609;22;20026;-92
2022/12/07 04:16:50;;;;;;;0.00;0.00;;;3.90;99.90;;;;;;6294496;22;20749;-93
2022/12/07 04:19:40;;;;;;;1.45;0.00;;;3.90;99.90;;;;;;6318838;22;20015;-92
2022/12/07 04:22:08;;;;;;;0.88;0.10;;;3.80;99.90;;;;;;6320783;22;20014;-94
2022/12/07 04:24:34;;;;;;;1.30;0.00;;;3.70;99.90;;;;;;6323811;22;20022;-94
2022/12/07 04:27:00;;;;;;;0.68;0.20;;;3.70;99.90;;;;;;6321957;22;20021;-94
2022/12/07 04:29:27;;;;;;;0.90;0.10;;;3.70;99.90;;;;;;6318443;22;20022;-90
2022/12/07 04:31:53;;;;;;;1.17;0.05;;;3.70;99.90;;;;;;6318733;22;20121;-91
2022/12/07 04:38:40;;;;;;;3.75;0.30;;;3.70;99.90;;;;;;6373711;22;20446;-93
2022/12/07 05:43:05;;;;;;;1.00;0.10;;;3.10;99.90;;;;;;6401714;22;20022;-96
2022/12/07 05:45:31;;;;;;;1.10;0.30;;;3.10;99.90;;;;;;6350096;22;20049;-96
2022/12/07 06:01:13;;;;;;;0.95;0.22;;;2.90;99.90;;;;;;6357630;22;20029;-94
2022/12/07 06:03:39;;;;;;;2.38;0.30;;;2.90;99.90;;;;;;6324548;22;20022;-93
2022/12/07 06:06:05;;;;;;;0.30;0.10;;;2.90;99.90;;;;;;6324347;22;20046;-92
2022/12/07 06:08:30;;;;;;;1.27;0.20;;;2.90;99.90;;;;;;6303652;22;20049;-92
2022/12/07 06:13:32;;;;;;;2.42;0.20;;;2.80;99.90;;;;;;6385990;22;20022;-91
2022/12/07 06:15:58;;;;;;;0.93;0.10;;;2.80;99.90;;;;;;6301365;22;20029;-97
2022/12/07 06:18:25;;;;;;;1.00;0.20;;;2.80;99.90;;;;;;6304451;22;20014;-94
2022/12/07 06:20:50;;;;;;;2.80;0.30;;;2.80;99.90;;;;;;6331838;22;20109;-93
2022/12/07 06:23:16;;;;;;;2.37;0.40;;;2.90;99.90;;;;;;6305525;22;20014;-91
2022/12/07 06:26:32;;;;;;;2.42;0.30;;;3.00;99.90;;;;;;6331901;22;20022;-96
2022/12/07 06:29:04;;;;;;;0.20;0.10;;;3.10;99.90;;;;;;6223487;23;20006;-91
2022/12/07 06:31:29;;;;;;;2.13;0.10;;;3.20;99.90;;;;;;6148727;23;20024;-93
2022/12/07 06:34:00;;;;;;;0.95;0.17;;;3.20;99.90;;;;;;6220065;23;20047;-90
2022/12/07 06:36:25;;;;;;;;;;;3.30;99.90;;;;;;6170709;23;20047;-92
2022/12/07 06:38:51;;;;;;;3.30;0.47;;;3.40;99.90;;;;;;6216817;23;19916;-91
2022/12/07 06:42:06;;;;;;;1.60;0.27;;;3.40;99.90;;;;;;6190615;23;20016;-92
2022/12/07 06:48:21;;;;;;;1.33;0.30;;;3.50;99.90;;;;;;6218755;23;20016;-92
2022/12/07 06:50:48;;;;;;;0.90;0.10;;;3.50;99.90;;;;;;6199918;23;20017;-89
2022/12/07 06:53:14;;;;;;;3.00;0.28;;;3.50;99.90;;;;;;6173092;23;20020;-96
2022/12/07 06:55:39;;;;;;;0.50;0.20;;;3.50;99.90;;;;;;6196116;23;20044;-91
2022/12/07 06:58:24;;;;;;;0.30;0.05;;;3.40;99.90;;;;;;6176315;23;20011;-96
2022/12/07 07:00:50;;;;;;;0.52;0.25;;;3.40;99.90;;;;;;6312940;22;20011;-93
2022/12/07 07:03:18;;;;;;;1.05;0.17;;;3.30;99.90;;;;;;6325063;22;20038;-95
2022/12/07 07:05:48;;;;;;;1.80;0.40;;;3.30;99.90;;;;;;6274073;22;20020;-96
2022/12/07 07:08:14;;;;;;;2.95;0.22;;;3.30;99.90;;;;;;6299293;22;20013;-92
2022/12/07 07:10:40;;;;;;;1.65;0.25;;;3.30;99.90;;;;;;6324238;22;20052;-92
2022/12/07 07:13:07;;;;;;;2.05;0.20;;;3.40;99.90;;;;;;6321329;22;20050;-96
2022/12/07 07:15:33;;;;;;;1.05;0.13;;;3.50;99.90;;;;;;6323074;22;20018;-95
2022/12/07 07:17:59;;;;;;;3.33;0.38;;;3.50;99.90;;;;;;6346221;22;20074;-90
2022/12/07 07:20:25;;;;;;;2.03;0.30;;;3.50;99.90;;;;;;6317334;22;20038;-94
2022/12/07 07:22:54;;;;;;;1.55;0.40;;;3.50;99.90;;;;;;6319271;22;20022;-93
2022/12/07 07:25:20;;;;;;;2.55;0.20;;;3.50;99.90;;;;;;6317405;22;20022;-92
2022/12/07 07:28:04;;;;;;;1.08;0.20;;;3.60;99.90;;;;;;6292390;22;20022;-91
2022/12/07 07:30:31;;;;;;;3.60;0.13;;;3.60;99.90;;;;;;6316940;22;20037;-94
2022/12/07 07:33:06;;;;;;;1.40;0.10;;;3.70;99.90;;;;;;6291324;22;20350;-94
2022/12/07 07:35:33;;;;;;;0.90;0.20;;;3.70;99.90;;;;;;6318140;22;20252;-95
2022/12/07 07:37:59;;;;;;;0.60;0.10;;;3.70;99.90;;;;;;6344568;22;20014;-95
2022/12/07 07:40:29;;;;;;;0.95;0.15;;;3.80;99.90;;;;;;6319349;22;20010;-90
2022/12/07 07:42:58;;;;;;;0.55;0.10;;;3.80;99.90;;;;;;6321002;22;20021;-89
2022/12/07 07:45:26;;;;;;;0.40;0.20;;;3.80;99.90;;;;;;6319892;22;20067;-93
2022/12/07 07:47:52;;;;;;;1.85;0.20;;;3.80;99.90;;;;;;6319261;22;20447;-94
2022/12/07 07:50:18;;;;;;;2.17;0.33;;;3.90;99.90;;;;;;6352351;22;20071;-90
2022/12/07 07:52:45;;;;;;;0.63;0.20;;;3.90;99.90;;;;;;6300065;22;20018;-94
2022/12/07 07:55:10;;;;;;;2.25;0.17;;;3.90;99.90;;;;;;6350009;22;20026;-90
2022/12/07 07:57:40;;;;;;;0.40;0.20;;;3.90;99.90;;;;;;6324054;22;20010;-96
2022/12/07 08:00:10;;;;;;;0.55;0.13;;;3.90;99.90;;;;;;6302175;22;20010;-91
2022/12/07 08:02:36;;;;;;;1.33;0.10;;;3.90;99.90;;;;;;6354274;22;20014;-96
2022/12/07 08:05:04;;;;;;;1.70;0.40;;;3.90;99.90;;;;;;6303653;22;20002;-90
2022/12/07 08:07:30;;;;;;;0.30;0.20;;;3.90;99.90;;;;;;6327548;22;20018;-90
2022/12/07 08:18:10;;;;;;;0.95;0.13;;;3.70;99.90;;;;;;6406069;22;20026;-96
2022/12/07 08:20:37;;;;;;;2.17;0.40;;;3.70;99.90;;;;;;6384317;22;20018;-94
2022/12/07 08:23:04;;;;;;;1.08;0.20;;;3.60;99.90;;;;;;6375753;22;20009;-92
2022/12/07 08:25:31;;;;;;;2.80;0.40;;;3.60;99.90;;;;;;6349279;22;20421;-90
2022/12/07 08:31:56;;;;;;;0.65;0.22;;;3.50;99.90;;;;;;6405048;22;20024;-96
2022/12/07 08:34:22;;;;;;;2.38;0.30;;;3.50;99.90;;;;;;6358993;22;20125;-95
2022/12/07 08:36:48;;;;;;;2.47;0.20;;;3.50;99.90;;;;;;6359341;22;20017;-95
2022/12/07 08:39:14;;;;;;;1.53;0.30;;;3.50;99.90;;;;;;6362544;22;20065;-96
2022/12/07 08:49:32;;;;;;;2.45;0.30;;;3.50;99.90;;;;;;6411134;22;20018;-96
2022/12/07 08:52:04;;;;;;;2.25;0.38;;;3.60;99.90;;;;;;6410689;22;20041;-95
2022/12/07 08:54:30;;;;;;;2.33;0.40;;;3.70;99.90;;;;;;6385150;22;20074;-92
2022/12/07 09:01:20;;;;;;;4.13;0.40;;;3.90;99.90;;;;;;6406894;22;20028;-90
2022/12/07 09:03:55;;;;;;;2.97;0.28;;;4.00;99.90;;;;;;6402434;22;20025;-91
2022/12/07 09:06:24;;;;;;;2.00;0.40;;;4.10;99.90;;;;;;6365024;22;20061;-95
2022/12/07 09:08:55;;;;;;;2.47;0.20;;;4.20;99.90;;;;;;6388231;22;20077;-96
2022/12/07 09:11:21;;;;;;;2.05;0.35;;;4.30;99.90;;;;;;6386815;22;20474;-94
2022/12/07 09:13:50;;;;;;;3.27;0.20;;;4.30;99.90;;;;;;6361759;22;20009;-91
2022/12/07 09:16:19;;;;;;;0.13;0.00;;;4.30;99.90;;;;;;6391303;22;20043;-94
2022/12/07 09:18:45;;;;;;;3.50;0.50;;;4.40;99.90;;;;;;6383692;22;20014;-93
2022/12/07 09:32:56;;;;;;;0.75;0.10;;;4.70;99.90;;;;;;6421886;22;20018;-95
2022/12/07 09:35:22;;;;;;;;;;;4.80;99.90;;;;;;6388889;22;20022;-96
2022/12/07 09:37:48;;;;;;;1.38;0.10;;;4.80;99.90;;;;;;6382775;22;19917;-94
2022/12/07 09:40:17;;;;;;;0.50;0.10;;;4.90;99.90;;;;;;6378028;22;20014;-92
2022/12/07 09:42:47;;;;;;;0.63;0.10;;;4.90;99.90;;;;;;6378791;22;20006;-94
2022/12/07 09:47:49;;;;;;;1.98;0.30;;;4.90;99.90;;;;;;6311309;22;20247;-96
2022/12/07 09:50:25;;;;;;;0.83;0.10;;;5.00;99.90;;;;;;6282567;22;20019;-91
2022/12/07 09:52:52;;;;;;;0.35;0.17;;;5.00;99.90;;;;;;6283782;22;20026;-96
2022/12/07 09:55:27;;;;;;;2.72;0.17;;;5.00;99.90;;;;;;6283649;22;20015;-95
2022/12/07 09:57:54;;;;;;;3.00;0.20;;;5.00;99.90;;;;;;6308871;22;20093;-96
2022/12/07 10:00:22;;;;;;;0.32;0.10;;;5.00;99.90;;;;;;6257244;22;20054;-92
2022/12/07 10:03:12;;;;;;;0.47;0.20;;;5.10;99.90;;;;;;6282510;22;20048;-93
2022/12/07 10:05:50;;;;;;;1.88;0.28;;;5.10;99.90;;;;;;6282803;22;20019;-96
2022/12/07 10:08:17;;;;;;;3.22;0.40;;;5.20;99.90;;;;;;6282160;22;20046;-95
2022/12/07 10:10:44;;;;;;;2.83;0.28;;;5.20;99.90;;;;;;6256564;22;20015;-94
2022/12/07 10:13:11;;;;;;;0.30;0.10;;;5.30;99.90;;;;;;6281926;22;20441;-93
2022/12/07 10:15:57;;;;;;;5.97;1.67;;;5.40;99.90;;;;;;6281930;22;20097;-95
2022/12/07 10:18:54;;;;;;;2.08;0.20;;;5.40;99.90;;;;;;6281257;22;20050;-91
2022/12/07 10:22:11;;;;;;;3.70;0.75;;;5.40;99.90;;;;;;6282282;22;20022;-92
2022/12/07 10:24:40;;;;;;;1.17;0.10;;;5.40;99.90;;;;;;6269406;22;20045;-94
2022/12/07 10:27:25;;;;;;;0.70;0.30;;;5.50;99.90;;;;;;6281971;22;20019;-93
2022/12/07 10:29:52;;;;;;;1.98;0.30;;;5.50;99.90;;;;;;6282986;22;20012;-93
2022/12/07 10:32:18;;;;;;;2.88;0.28;;;5.50;99.90;;;;;;6281693;22;20054;-94
2022/12/07 11:25:32;;;;;;;0.80;0.20;;;5.40;99.90;;;;;;6400336;22;20018;-89
2022/12/07 11:28:09;;;;;;;2.40;0.20;;;5.40;99.90;;;;;;6375473;22;20105;-95
2022/12/07 11:45:21;;;;;;;2.65;0.20;;;5.50;99.90;;;;;;6378761;22;20022;-95
2022/12/07 11:48:30;;;;;;;0.30;0.17;;;5.60;99.90;;;;;;6327999;22;20078;-90
2022/12/07 11:50:59;;;;;;;1.15;0.25;;;5.60;99.90;;;;;;6326076;22;20045;-90
2022/12/07 11:53:50;;;;;;;1.58;0.10;;;5.60;99.90;;;;;;6347970;22;20271;-90
2022/12/07 11:56:21;;;;;;;2.45;0.17;;;5.60;99.90;;;;;;6322452;22;20350;-95
2022/12/07 11:59:04;;;;;;;2.38;0.40;;;5.60;99.90;;;;;;6327133;22;20471;-96
2022/12/07 12:01:38;;;;;;;1.58;0.17;;;5.60;99.90;;;;;;6326133;22;20036;-91
2022/12/07 12:08:24;;;;;;;1.33;0.22;;;5.60;99.90;;;;;;6374256;22;20053;-94
2022/12/07 12:11:16;;;;;;;2.13;0.17;;;5.60;99.90;;;;;;6319365;22;20104;-94
2022/12/07 12:13:54;;;;;;;2.13;0.30;;;5.60;99.90;;;;;;6345194;22;20143;-94
2022/12/07 12:16:33;;;;;;;3.72;0.20;;;5.60;99.90;;;;;;6345331;22;20018;-93
2022/12/07 12:19:19;;;;;;;0.98;0.08;;;5.50;99.90;;;;;;6345403;22;20046;-93
2022/12/07 12:22:33;;;;;;;1.52;0.28;;;5.50;99.90;;;;;;6320242;22;20130;-93
2022/12/07 12:24:59;;;;;;;1.45;0.20;;;5.50;99.90;;;;;;6286997;22;20014;-94
2022/12/07 12:27:30;;;;;;;2.80;0.25;;;5.50;99.90;;;;;;6319511;22;20339;-95
2022/12/07 12:30:00;;;;;;;0.45;0.10;;;5.50;99.90;;;;;;6319176;22;20025;-94
2022/12/07 12:32:43;;;;;;;1.92;0.30;;;5.50;99.90;;;;;;6319038;22;20014;-93
2022/12/07 12:35:31;;;;;;;1.88;0.20;;;5.50;99.90;;;;;;6318974;22;20014;-94
2022/12/07 12:38:26;;;;;;;3.13;0.35;;;5.50;99.90;;;;;;6319379;22;20014;-94
2022/12/07 12:40:53;;;;;;;3.15;0.40;;;5.50;99.90;;;;;;6319161;22;20436;-94
2022/12/07 12:43:52;;;;;;;0.20;0.10;;;5.50;99.90;;;;;;6318763;22;20042;-93
2022/12/07 12:46:30;;;;;;;4.03;0.52;;;5.50;99.90;;;;;;6221514;22;20030;-93
2022/12/07 12:49:30;;;;;;;1.35;0.10;;;5.50;99.90;;;;;;6287992;22;20029;-93
2022/12/07 12:51:58;;;;;;;2.00;0.20;;;5.60;99.90;;;;;;6287974;22;20050;-93
2022/12/07 12:54:28;;;;;;;3.05;0.20;;;5.60;99.90;;;;;;6288172;22;20117;-94
2022/12/07 12:57:18;;;;;;;1.80;0.15;;;5.60;99.90;;;;;;6288012;22;20059;-95
2022/12/07 12:59:52;;;;;;;2.47;0.30;;;5.60;99.90;;;;;;6288263;22;20018;-94
2022/12/07 13:02:27;;;;;;;3.03;0.30;;;5.60;99.90;;;;;;6287984;22;20051;-94
2022/12/07 13:04:54;;;;;;;1.17;0.20;;;5.50;99.90;;;;;;6287748;22;20026;-93
2022/12/07 13:07:48;;;;;;;1.80;0.13;;;5.50;99.90;;;;;;6287698;22;20017;-93
2022/12/07 13:10:29;;;;;;;1.77;0.20;;;5.50;99.90;;;;;;6287724;22;20025;-93
2022/12/07 13:13:13;;;;;;;1.23;0.10;;;5.50;99.90;;;;;;6287648;22;20023;-95
2022/12/07 13:15:45;;;;;;;1.77;0.10;;;5.40;99.90;;;;;;6287786;22;20022;-95
2022/12/07 13:18:30;;;;;;;3.78;0.10;;;5.50;99.90;;;;;;6286995;22;20018;-94
2022/12/07 13:21:21;;;;;;;3.70;0.20;;;5.50;99.90;;;;;;6312824;22;20014;-94
2022/12/07 13:23:49;;;;;;;3.50;0.38;;;5.40;99.90;;;;;;6313065;22;20597;-93
2022/12/07 13:26:30;;;;;;;1.85;0.17;;;5.50;99.90;;;;;;6287552;22;20022;-93
2022/12/07 13:29:17;;;;;;;0.60;0.00;;;5.50;99.90;;;;;;6287503;22;20399;-92
2022/12/07 13:31:52;;;;;;;2.00;0.10;;;5.40;99.90;;;;;;6287307;22;20014;-93
2022/12/07 13:34:38;;;;;;;0.30;0.10;;;5.40;99.90;;;;;;6261463;22;20046;-93
2022/12/07 13:37:15;;;;;;;1.42;0.10;;;5.40;99.90;;;;;;6287603;22;20021;-94
2022/12/07 13:39:54;;;;;;;0.70;0.10;;;5.30;99.90;;;;;;6288042;22;20042;-93
2022/12/07 13:42:31;;;;;;;0.03;0.00;;;5.20;99.90;;;;;;6287692;22;20285;-95
2022/12/07 13:44:58;;;;;;;2.80;0.20;;;5.20;99.90;;;;;;6287798;22;20045;-94
2022/12/07 13:47:48;;;;;;;0.45;0.20;;;5.10;99.90;;;;;;6317532;22;20023;-95
2022/12/07 13:50:24;;;;;;;2.65;0.15;;;5.10;99.90;;;;;;6344434;22;20014;-96
2022/12/07 13:53:12;;;;;;;0.55;0.20;;;5.00;99.90;;;;;;6318854;22;20443;-95
2022/12/07 13:55:46;;;;;;;4.88;2.40;;;5.00;99.90;;;;;;6319728;22;20015;-94
2022/12/07 13:58:12;;;;;;;4.20;2.60;;;4.90;99.90;;;;;;6318305;22;20014;-94
2022/12/07 14:00:46;;;;;;;0.43;0.30;;;4.90;99.90;;;;;;6318716;22;20011;-95
2022/12/07 14:03:11;;;;;;;2.33;1.30;;;4.90;99.90;;;;;;6293797;22;20022;-93
2022/12/07 14:24:20;;;;;;;0.35;0.10;;;4.30;99.90;;;;;;6371481;22;20018;-93
2022/12/07 14:26:47;;;;;;;;;;;4.30;99.90;;;;;;6292753;22;20030;-93
2022/12/07 14:29:25;;;;;;;0.75;0.10;;;4.20;99.90;;;;;;6317589;22;19914;-94
2022/12/07 14:31:52;;;;;;;0.20;0.00;;;4.20;99.90;;;;;;6343747;22;20378;-92
2022/12/07 14:34:21;;;;;;;1.02;0.32;;;4.10;99.90;;;;;;6318147;22;20015;-92
2022/12/07 14:36:46;;;;;;;0.10;0.10;;;4.10;99.90;;;;;;6317950;22;20036;-93
2022/12/07 14:39:12;;;;;;;1.60;0.17;;;4.10;99.90;;;;;;6317645;22;20022;-93
2022/12/07 14:41:50;;;;;;;0.63;0.20;;;4.10;99.90;;;;;;6317606;22;20067;-93
2022/12/07 14:44:16;;;;;;;2.45;0.20;;;4.10;99.90;;;;;;6315967;22;20014;-93
2022/12/07 14:46:42;;;;;;;0.88;0.30;;;4.10;99.90;;;;;;6317348;22;20026;-93
2022/12/07 14:49:07;;;;;;;1.47;0.50;;;4.20;99.90;;;;;;6291900;22;20015;-95
2022/12/07 14:51:35;;;;;;;0.60;0.30;;;4.20;99.90;;;;;;6291351;22;20749;-93
2022/12/07 14:54:14;;;;;;;1.00;0.20;;;4.20;99.90;;;;;;6317222;22;20036;-95
2022/12/07 15:31:03;;;;;;;2.63;0.88;;;4.10;99.90;;;;;;6369106;22;20022;-93
2022/12/07 15:33:29;;;;;;;1.67;0.40;;;4.10;99.90;;;;;;6291449;22;20097;-93
2022/12/07 15:35:55;;;;;;;0.30;0.00;;;4.10;99.90;;;;;;6317394;22;20115;-92
2022/12/07 15:38:22;;;;;;;2.30;0.68;;;4.10;99.90;;;;;;6317331;22;20037;-92
2022/12/07 15:40:48;;;;;;;2.80;0.57;;;4.00;99.90;;;;;;6317168;22;20015;-94
2022/12/07 15:45:59;;;;;;;4.40;1.35;;;4.00;99.90;;;;;;6343281;22;20368;-93
2022/12/07 15:48:25;;;;;;;2.97;0.95;;;4.00;99.90;;;;;;6317239;22;20010;-93
2022/12/07 15:50:50;;;;;;;5.80;3.13;;;3.90;99.90;;;;;;6317283;22;20019;-93
2022/12/07 16:34:09;;;;;;;0.77;0.30;;;3.70;99.90;;;;;;6376069;22;20018;-93
2022/12/07 16:36:34;;;;;;;1.42;0.50;;;3.70;99.90;;;;;;6349105;22;20354;-92
2022/12/07 16:39:01;;;;;;;3.00;0.90;;;3.70;99.90;;;;;;6375601;22;20069;-92
2022/12/07 16:41:27;;;;;;;3.03;0.65;;;3.70;99.90;;;;;;6375701;22;20104;-93
2022/12/07 16:54:14;;;;;;;1.88;0.60;;;3.70;99.90;;;;;;6372868;22;20336;-94
2022/12/07 16:56:41;;;;;;;1.67;0.80;;;3.70;99.90;;;;;;6348113;22;20019;-92
2022/12/07 16:59:09;;;;;;;2.53;0.80;;;3.70;99.90;;;;;;6325390;22;20017;-93
2022/12/07 17:05:41;;;;;;;4.07;0.95;;;3.60;99.90;;;;;;6375301;22;20043;-94
2022/12/07 17:18:56;;;;;;;1.35;0.40;;;3.50;99.90;;;;;;6340810;22;20076;-92
2022/12/07 17:21:23;;;;;;;2.27;0.33;;;3.50;99.90;;;;;;6313480;22;20093;-89
2022/12/07 18:21:21;;;;;;;2.38;0.70;;;3.60;99.90;;;;;;6368100;22;20022;-92
2022/12/07 18:24:05;;;;;;;1.83;0.50;;;3.60;99.90;;;;;;6317872;22;20015;-93
2022/12/07 18:26:34;;;;;;;1.98;0.70;;;3.50;99.90;;;;;;6317880;22;20046;-90
2022/12/07 18:29:01;;;;;;;1.95;0.65;;;3.50;99.90;;;;;;6317395;22;20015;-89
2022/12/07 18:31:32;;;;;;;0.85;0.50;;;3.50;99.90;;;;;;6266444;22;20347;-92
2022/12/07 18:34:14;;;;;;;1.75;0.70;;;3.50;99.90;;;;;;6317451;22;20050;-91
2022/12/07 18:36:44;;;;;;;2.92;1.08;;;3.50;99.90;;;;;;6343605;22;20447;-91
2022/12/07 18:39:11;;;;;;;3.72;1.20;;;3.50;99.90;;;;;;6318068;22;20143;-90
2022/12/07 18:41:37;;;;;;;1.75;0.57;;;3.50;99.90;;;;;;6317765;22;20046;-92
2022/12/07 18:44:04;;;;;;;5.68;1.70;;;3.50;99.90;;;;;;6317589;22;20097;-93
2022/12/07 18:46:29;;;;;;;2.92;0.73;;;3.50;99.90;;;;;;6342305;22;20358;-93
2022/12/07 18:51:31;;;;;;;3.08;0.40;;;3.50;99.90;;;;;;6388864;22;20021;-90
2022/12/07 18:53:59;;;;;;;2.63;0.70;;;3.50;99.90;;;;;;6322928;22;20014;-92
2022/12/07 18:56:28;;;;;;;6.40;1.55;;;3.40;99.90;;;;;;6347311;22;20013;-91
2022/12/07 19:01:49;;;;;;;2.90;0.50;;;3.50;99.90;;;;;;6373934;22;20478;-92
2022/12/07 19:04:17;;;;;;;2.25;0.60;;;3.50;99.90;;;;;;6348725;22;20014;-90
2022/12/07 19:06:45;;;;;;;1.58;0.50;;;3.40;99.90;;;;;;6348830;22;20044;-91
2022/12/07 19:09:29;;;;;;;0.88;0.32;;;3.50;99.90;;;;;;6348423;22;20020;-91
2022/12/07 19:17:10;;;;;;;1.23;0.50;;;3.50;99.90;;;;;;6401785;22;20018;-95
2022/12/07 19:19:45;;;;;;;4.13;1.48;;;3.40;99.90;;;;;;6374209;22;20018;-91
2022/12/07 19:22:32;;;;;;;2.60;0.70;;;3.50;99.90;;;;;;6372796;22;20079;-91
2022/12/07 19:25:18;;;;;;;2.85;0.82;;;3.50;99.90;;;;;;6373407;22;20017;-91
2022/12/07 19:28:24;;;;;;;3.00;0.85;;;3.50;99.90;;;;;;6374797;22;20014;-94
2022/12/07 19:30:50;;;;;;;5.93;3.15;;;3.50;99.90;;;;;;6323418;22;20014;-90
2022/12/07 19:33:16;;;;;;;3.60;1.08;;;3.50;99.90;;;;;;6374785;22;20045;-89
2022/12/07 19:35:42;;;;;;;5.82;2.00;;;3.50;99.90;;;;;;6374928;22;20461;-92
2022/12/07 19:38:07;;;;;;;4.50;1.23;;;3.50;99.90;;;;;;6349029;22;20042;-93
2022/12/07 19:40:33;;;;;;;1.98;0.70;;;3.50;99.90;;;;;;6349014;22;20022;-93
2022/12/07 19:42:59;;;;;;;4.67;1.30;;;3.50;99.90;;;;;;6374454;22;20014;-91
2022/12/07 19:45:27;;;;;;;2.03;0.80;;;3.50;99.90;;;;;;6374752;22;20049;-91
2022/12/07 19:47:53;;;;;;;2.83;0.95;;;3.50;99.90;;;;;;6349591;22;20048;-91
2022/12/07 19:50:19;;;;;;;4.68;1.55;;;3.50;99.90;;;;;;6374916;22;20018;-92
2022/12/07 19:52:44;;;;;;;2.63;0.90;;;3.50;99.90;;;;;;6374444;22;20047;-91
2022/12/07 19:55:10;;;;;;;1.03;0.50;;;3.50;99.90;;;;;;6374444;22;20017;-90
2022/12/07 19:57:36;;;;;;;1.73;0.70;;;3.50;99.90;;;;;;6374419;22;20458;-92
2022/12/07 20:00:02;;;;;;;1.07;0.47;;;3.50;99.90;;;;;;6348545;22;20017;-91
2022/12/07 20:02:50;;;;;;;2.80;1.08;;;3.50;99.90;;;;;;6349000;22;20093;-96
2022/12/07 20:05:16;;;;;;;;;;;3.50;99.90;;;;;;6401896;22;20053;-92
2022/12/07 20:07:42;;;;;;;7.22;2.15;;;3.50;99.90;;;;;;6374301;22;19928;-93
2022/12/07 20:10:08;;;;;;;2.63;0.70;;;3.50;99.90;;;;;;6322413;22;20053;-91
2022/12/07 20:15:18;;;;;;;1.92;0.70;;;3.40;99.90;;;;;;6356453;22;20346;-89
2022/12/07 20:17:44;;;;;;;5.18;3.15;;;3.50;99.90;;;;;;6322084;22;20032;-90
2022/12/07 20:20:10;;;;;;;2.93;0.70;;;3.40;99.90;;;;;;6348541;22;20060;-92
2022/12/07 20:22:36;;;;;;;1.00;0.50;;;3.50;99.90;;;;;;6322789;22;20047;-91
2022/12/07 20:25:02;;;;;;;2.40;0.70;;;3.50;99.90;;;;;;6346126;22;20018;-90
2022/12/07 20:27:28;;;;;;;3.65;1.45;;;3.40;99.90;;;;;;6374933;22;20097;-91
2022/12/07 20:29:53;;;;;;;5.90;2.00;;;3.40;99.90;;;;;;6323883;22;20101;-90
2022/12/07 20:32:19;;;;;;;3.60;1.87;;;3.40;99.90;;;;;;6322495;22;20021;-91
2022/12/07 20:34:45;;;;;;;5.07;1.83;;;3.40;99.90;;;;;;6376587;22;20070;-90
2022/12/07 20:37:11;;;;;;;4.40;1.40;;;3.40;99.90;;;;;;6376490;22;20006;-91
2022/12/07 20:39:37;;;;;;;3.72;1.13;;;3.40;99.90;;;;;;6376905;22;20283;-91
2022/12/07 20:44:47;;;;;;;3.33;1.05;;;3.30;99.90;;;;;;6380696;22;20018;-91
2022/12/07 20:47:12;;;;;;;3.30;1.25;;;3.30;99.90;;;;;;6324085;22;20021;-90
2022/12/07 20:49:38;;;;;;;2.70;1.27;;;3.30;99.90;;;;;;6376168;22;20070;-91
2022/12/07 20:52:04;;;;;;;1.93;0.80;;;3.30;99.90;;;;;;6350084;22;20084;-91
2022/12/07 20:54:30;;;;;;;2.10;0.90;;;3.30;99.90;;;;;;6376196;22;20021;-92
2022/12/07 20:57:01;;;;;;;4.73;1.33;;;3.30;99.90;;;;;;6349999;22;20014;-93
2022/12/07 20:59:27;;;;;;;4.50;1.70;;;3.30;99.90;;;;;;6350388;22;20018;-91
2022/12/07 21:01:53;;;;;;;4.22;1.20;;;3.40;99.90;;;;;;6349857;22;20014;-90
2022/12/07 21:04:19;;;;;;;3.83;1.17;;;3.40;99.90;;;;;;6349667;22;20010;-90
2022/12/07 21:06:44;;;;;;;1.93;0.50;;;3.40;99.90;;;;;;6349980;22;20014;-91
2022/12/07 21:09:10;;;;;;;2.40;1.00;;;3.40;99.90;;;;;;6349808;22;20010;-90
2022/12/07 21:11:38;;;;;;;3.17;0.77;;;3.40;99.90;;;;;;6323906;22;20025;-90
2022/12/07 21:14:03;;;;;;;;;;;3.40;99.90;;;;;;6403021;22;20014;-90
2022/12/07 21:16:30;;;;;;;3.38;0.93;;;3.40;99.90;;;;;;6375719;22;19976;-89
2022/12/07 21:19:01;;;;;;;7.10;1.20;;;3.40;99.90;;;;;;6402540;22;20017;-94
2022/12/07 21:21:44;;;;;;;7.97;1.80;;;3.40;99.90;;;;;;6376015;22;20010;-91
2022/12/07 21:24:10;;;;;;;5.15;2.03;;;3.40;99.90;;;;;;6376153;22;20100;-92
2022/12/07 21:26:36;;;;;;;7.20;3.35;;;3.40;99.90;;;;;;6349869;22;20028;-92
2022/12/07 21:29:05;;;;;;;4.77;1.80;;;3.40;99.90;;;;;;6376013;22;20093;-92
2022/12/07 21:31:33;;;;;;;4.35;1.40;;;3.30;99.90;;;;;;6375938;22;20395;-91
2022/12/07 21:49:34;;;;;;;3.80;1.60;;;3.30;99.90;;;;;;6401419;22;20029;-90
2022/12/07 21:53:17;;;;;;;;;;;;;;;;;;;;;
2022/12/07 21:55:56;;;;;;;3.47;1.40;;;3.20;99.90;;;;;;6226529;22;20025;-92
2022/12/07 21:58:22;;;;;;;4.50;1.45;;;3.20;99.90;;;;;;6255182;22;20098;-91
2022/12/07 22:00:58;;;;;;;3.27;1.13;;;3.20;99.90;;;;;;6307071;22;20022;-92
2022/12/07 22:03:34;;;;;;;;;;;;;;;;;;;;;
2022/12/07 22:16:40;;;;;;;4.57;1.50;;;3.20;99.90;;;;;;6375443;22;20017;-90
2022/12/07 22:19:14;;;;;;;2.63;1.02;;;3.10;99.90;;;;;;6349523;22;20024;-90
2022/12/07 22:21:53;;;;;;;1.42;0.55;;;3.20;99.90;;;;;;6349210;22;20088;-96
2022/12/07 22:24:19;;;;;;;2.38;0.68;;;3.20;99.90;;;;;;6349013;22;20018;-93
2022/12/07 22:26:47;;;;;;;3.80;0.90;;;3.20;99.90;;;;;;6348134;22;20013;-90
2022/12/07 22:29:23;;;;;;;;;;;;;;;;;;;;;
2022/12/07 22:31:49;;;;;;;3.75;0.68;;;3.20;99.90;;;;;;6375039;22;20416;-89
2022/12/07 22:34:16;;;;;;;2.30;0.50;;;3.30;99.90;;;;;;6322740;22;20067;-90
2022/12/07 22:36:42;;;;;;;;;;;3.30;99.90;;;;;;6349715;22;20005;-89
2022/12/07 22:39:08;;;;;;;1.50;0.20;;;3.30;99.90;;;;;;6348897;22;19920;-89
2022/12/07 22:41:34;;;;;;;0.50;0.20;;;3.40;99.90;;;;;;6322822;22;20018;-90
2022/12/07 22:44:00;;;;;;;1.90;0.50;;;3.40;99.90;;;;;;6348841;22;20348;-91
2022/12/07 22:46:26;;;;;;;1.23;0.43;;;3.40;99.90;;;;;;6322478;22;20010;-91
2022/12/07 22:48:52;;;;;;;1.08;0.30;;;3.40;99.90;;;;;;6348920;22;20014;-91
2022/12/07 22:51:23;;;;;;;1.80;0.40;;;3.50;99.90;;;;;;6348640;22;20021;-90
2022/12/07 22:53:49;;;;;;;1.52;0.50;;;3.50;99.90;;;;;;6348506;22;20014;-89
2022/12/07 22:56:18;;;;;;;2.40;0.57;;;3.40;99.90;;;;;;6348955;22;20016;-90